Accueil
METAR-TAF:

METAR-TAF

Aéroports :

Aéroport international de Nagasaki

Nagasaki, Japon

latitude: 32-55N, longitude: 129-55E, altitude: 2 m

Observation

Le bulletin a été fait il y a 6 heures et 9 minutes, à 12:00 UTC
Vent 5 kt de nord
Température 12°C
Humidité 76%
Pression 1021 hPa
Visibilité 10 km ou plus
Quelques nuages à une hauteur de 3000 ft

METAR: RJFU 191200Z 01005KT 9999 FEW030 12/08 Q1021

Heure: 03:09 (18:09 UTC)

Prévision

Le bulletin a été fait il y a 1 heure et 4 minutes, à 17:05 UTC
Prévision valable du 19 à 18 UTC au 21 à 00 UTC
Vent 4 kt de sud-est
Visibilité 10 km ou plus
Quelques nuages à une hauteur de 3000 ft
Nuages épars à une hauteur de 4500 ft
Evoluant progressivement
du 19 à 22 UTC au 20 à 00 UTC
Vent 9 kt de nord/nord-ouest
Evoluant progressivement
du 20 à 09 UTC au 20 à 12 UTC
Vent 4 kt de sud-est

TAF: RJFU 191705Z 1918/2100 14004KT 9999 FEW030 SCT045 BECMG 1922/2000 34009KT BECMG 2009/2012 14004KT

Observations et prévisions météorologiques de plus de 4000 aéroports (messages METAR et TAF).

Les stations disponibles sont représentées par des disques jaunes et rouges sur la carte.

Passer la souris dessus pour voir le nom de la station.

Cliquer dessus pour voir les observations et prévisions météorologiques.

Pour changer de carte: cliquez sur les boutons verts avec une croix noire pour zoomer, sur le bouton vert avec un tiret pour effectuer un zoom arrière, ou sur les flèches vertes pour les cartes adjacentes.


METAR-TAF: